createdAt,value
2018-05-09T00:00:07.299Z,2.77
2018-05-09T00:02:35.590Z,2.83
2018-05-09T00:05:07.015Z,2.93
2018-05-09T00:07:35.610Z,2.67
2018-05-09T00:10:06.784Z,2.90
2018-05-09T00:12:35.062Z,2.67
2018-05-09T00:15:06.249Z,2.83
2018-05-09T00:17:34.567Z,2.77
2018-05-09T00:20:05.866Z,3.03
2018-05-09T00:22:34.138Z,2.73
2018-05-09T00:25:05.603Z,2.90
2018-05-09T00:27:33.880Z,2.90
2018-05-09T00:30:05.169Z,3.03
2018-05-09T00:32:33.451Z,3.50
2018-05-09T00:35:08.174Z,2.90
2018-05-09T00:37:36.600Z,2.80
2018-05-09T00:40:06.707Z,2.83
2018-05-09T00:42:34.989Z,2.93
2018-05-09T00:45:06.800Z,3.13
2018-05-09T00:47:35.078Z,3.90
2018-05-09T00:50:07.086Z,3.10
2018-05-09T00:52:37.383Z,3.50
2018-05-09T00:55:06.468Z,4.33
2018-05-09T00:57:34.759Z,3.17
2018-05-09T01:00:06.854Z,3.27
2018-05-09T01:02:35.629Z,3.27
2018-05-09T01:05:07.492Z,7.53
2018-05-09T01:07:35.743Z,3.20
2018-05-09T01:10:05.831Z,6.17
2018-05-09T01:12:34.115Z,2.97
2018-05-09T01:15:07.315Z,4.90
2018-05-09T01:17:35.595Z,3.10
2018-05-09T01:20:07.509Z,3.20
2018-05-09T01:22:35.792Z,3.20
2018-05-09T01:25:07.486Z,3.43
2018-05-09T01:27:35.768Z,5.27
2018-05-09T01:30:07.844Z,3.43
2018-05-09T01:32:36.364Z,4.47
2018-05-09T01:35:07.401Z,3.17
2018-05-09T01:37:35.868Z,3.53
2018-05-09T01:40:06.051Z,3.57
2018-05-09T01:42:34.340Z,3.33
2018-05-09T01:45:09.396Z,3.60
2018-05-09T01:47:37.698Z,4.33
2018-05-09T01:50:05.964Z,4.40
2018-05-09T01:52:34.227Z,3.20
2018-05-09T01:55:09.471Z,3.97
2018-05-09T01:57:37.731Z,3.40
2018-05-09T02:00:06.010Z,4.10
2018-05-09T02:02:34.540Z,4.60
2018-05-09T02:05:06.721Z,4.50
2018-05-09T02:07:34.928Z,3.90
2018-05-09T02:10:06.396Z,3.93
2018-05-09T02:12:34.666Z,21.20
2018-05-09T02:15:06.631Z,3.40
2018-05-09T02:17:35.155Z,3.60
2018-05-09T02:20:06.955Z,3.47
2018-05-09T02:22:35.219Z,3.20
2018-05-09T02:25:07.043Z,3.60
2018-05-09T02:27:35.503Z,4.13
2018-05-09T02:30:05.867Z,5.47
2018-05-09T02:32:34.123Z,3.47
2018-05-09T02:35:05.850Z,3.63
2018-05-09T02:37:34.331Z,3.37
2018-05-09T02:40:05.864Z,3.50
2018-05-09T02:42:34.187Z,3.77
2018-05-09T02:45:05.728Z,3.57
2018-05-09T02:47:34.184Z,3.70
2018-05-09T02:50:08.181Z,5.13
2018-05-09T02:52:36.444Z,4.07
2018-05-09T02:55:06.395Z,5.77
2018-05-09T02:57:34.879Z,5.57
2018-05-09T03:00:06.697Z,3.80
2018-05-09T03:02:35.103Z,3.53
2018-05-09T03:05:05.923Z,3.50
2018-05-09T03:07:34.323Z,3.60
2018-05-09T03:10:05.884Z,4.23
2018-05-09T03:12:34.232Z,3.73
2018-05-09T03:15:07.458Z,3.67
2018-05-09T03:17:35.723Z,3.70
2018-05-09T03:20:07.527Z,4.07
2018-05-09T03:22:35.792Z,3.43
2018-05-09T03:25:07.915Z,4.03
2018-05-09T03:27:36.179Z,3.70
2018-05-09T03:30:07.146Z,3.90
2018-05-09T03:32:35.404Z,3.90
2018-05-09T03:35:06.858Z,4.20
2018-05-09T03:37:35.334Z,3.77
2018-05-09T03:40:06.887Z,4.00
2018-05-09T03:42:35.886Z,4.00
2018-05-09T03:45:06.321Z,4.07
2018-05-09T03:47:34.595Z,4.03
2018-05-09T03:50:07.417Z,3.90
2018-05-09T03:52:35.959Z,4.30
2018-05-09T03:55:06.049Z,4.27
2018-05-09T03:57:34.656Z,4.23
2018-05-09T04:00:06.151Z,3.97
2018-05-09T04:02:46.375Z,4.27
2018-05-09T04:05:26.269Z,4.67
2018-05-09T04:08:06.724Z,3.83
2018-05-09T04:10:35.007Z,4.10
2018-05-09T04:13:03.295Z,4.10
2018-05-09T04:15:31.594Z,4.57
2018-05-09T04:18:00.037Z,4.10
2018-05-09T04:20:28.308Z,4.70
2018-05-09T04:22:56.591Z,4.10
2018-05-09T04:25:24.875Z,4.20
2018-05-09T04:27:53.162Z,4.50
2018-05-09T04:30:21.415Z,4.50
2018-05-09T04:32:49.713Z,4.33
2018-05-09T04:35:17.971Z,4.20
2018-05-09T04:37:46.269Z,4.30
2018-05-09T04:40:14.532Z,4.60
2018-05-09T04:42:43.807Z,4.30
2018-05-09T04:45:12.072Z,4.30
2018-05-09T04:47:40.346Z,4.57
2018-05-09T04:50:08.615Z,5.10
2018-05-09T04:52:37.060Z,4.83
2018-05-09T04:55:07.635Z,4.53
2018-05-09T04:57:35.939Z,4.97
2018-05-09T05:00:07.423Z,4.97
2018-05-09T05:02:36.043Z,4.80
2018-05-09T05:05:07.824Z,4.70
2018-05-09T05:07:36.163Z,4.90
2018-05-09T05:10:09.259Z,4.93
2018-05-09T05:12:37.543Z,4.63
2018-05-09T05:15:06.737Z,4.73
2018-05-09T05:17:35.863Z,5.27
2018-05-09T05:20:07.072Z,4.80
2018-05-09T05:22:35.352Z,4.80
2018-05-09T05:25:07.487Z,4.70
2018-05-09T05:27:35.774Z,4.93
2018-05-09T05:30:07.639Z,5.20
2018-05-09T05:32:35.923Z,4.90
2018-05-09T05:35:07.247Z,5.27
2018-05-09T05:37:35.561Z,5.33
2018-05-09T05:40:07.590Z,4.83
2018-05-09T05:42:35.879Z,4.87
2018-05-09T05:45:08.751Z,5.90
2018-05-09T05:47:37.246Z,5.53
2018-05-09T05:50:06.222Z,4.80
2018-05-09T05:52:34.871Z,5.90
2018-05-09T05:55:06.151Z,17.50
2018-05-09T05:57:34.443Z,5.10
2018-05-09T06:00:07.816Z,5.67
2018-05-09T06:02:36.102Z,4.83
2018-05-09T06:05:07.655Z,10.60
2018-05-09T06:07:35.963Z,5.37
2018-05-09T06:10:07.487Z,4.80
2018-05-09T06:12:35.770Z,9.93
2018-05-09T06:15:07.514Z,4.70
2018-05-09T06:17:35.974Z,5.00
2018-05-09T06:20:06.223Z,4.80
2018-05-09T06:22:34.480Z,4.63
2018-05-09T06:25:09.620Z,4.63
2018-05-09T06:27:38.119Z,4.50
2018-05-09T06:30:07.340Z,4.60
2018-05-09T06:32:35.607Z,4.37
2018-05-09T06:35:06.845Z,4.40
2018-05-09T06:37:35.124Z,4.87
2018-05-09T06:40:07.381Z,5.10
2018-05-09T06:42:36.919Z,4.63
2018-05-09T06:45:06.797Z,4.90
2018-05-09T06:47:35.063Z,5.30
2018-05-09T06:50:07.168Z,4.40
2018-05-09T06:52:35.444Z,4.73
2018-05-09T06:55:07.471Z,4.70
2018-05-09T07:00:10.305Z,4.60
2018-05-09T07:02:38.568Z,4.60
2018-05-09T07:05:06.851Z,4.83
2018-05-09T07:07:35.121Z,4.43
2018-05-09T07:10:06.391Z,4.40
2018-05-09T07:12:34.683Z,4.77
2018-05-09T07:15:09.844Z,4.60
2018-05-09T07:17:38.291Z,4.57
2018-05-09T07:20:06.724Z,4.60
2018-05-09T07:22:35.142Z,4.80
2018-05-09T07:25:06.443Z,4.53
2018-05-09T07:27:34.718Z,4.67
2018-05-09T07:30:09.722Z,4.60
2018-05-09T07:32:37.991Z,5.20
2018-05-09T07:35:06.612Z,4.70
2018-05-09T07:37:34.848Z,4.53
2018-05-09T07:40:06.578Z,4.97
2018-05-09T07:42:34.874Z,4.67
2018-05-09T07:45:06.791Z,4.97
2018-05-09T07:47:35.132Z,4.47
2018-05-09T07:50:06.291Z,4.03
2018-05-09T07:52:34.668Z,4.70
2018-05-09T07:55:06.271Z,4.50
2018-05-09T07:57:34.538Z,4.13
2018-05-09T08:00:06.600Z,4.70
2018-05-09T08:02:34.864Z,4.60
2018-05-09T08:05:06.425Z,4.33
2018-05-09T08:07:34.791Z,4.30
2018-05-09T08:10:06.254Z,4.20
2018-05-09T08:12:34.527Z,4.20
2018-05-09T08:15:08.651Z,4.83
2018-05-09T08:17:36.923Z,4.00
2018-05-09T08:20:06.979Z,4.33
2018-05-09T08:22:35.420Z,4.17
2018-05-09T08:25:07.468Z,4.47
2018-05-09T08:27:35.735Z,4.00
2018-05-09T08:30:07.446Z,3.80
2018-05-09T08:32:35.900Z,4.07
2018-05-09T08:35:07.228Z,4.80
2018-05-09T08:37:35.701Z,4.60
2018-05-09T08:40:08.575Z,4.50
2018-05-09T08:42:36.864Z,4.40
2018-05-09T08:45:06.369Z,4.47
2018-05-09T08:47:34.657Z,4.50
2018-05-09T08:50:06.100Z,4.53
2018-05-09T08:52:34.384Z,5.87
2018-05-09T08:55:06.176Z,4.77
2018-05-09T08:57:34.451Z,4.27
2018-05-09T09:00:05.963Z,4.73
2018-05-09T09:02:34.321Z,4.67
2018-05-09T09:05:09.227Z,4.53
2018-05-09T09:07:37.511Z,4.60
2018-05-09T09:10:07.187Z,4.70
2018-05-09T09:12:35.474Z,4.63
2018-05-09T09:15:07.449Z,4.43
2018-05-09T09:17:36.132Z,4.97
2018-05-09T09:20:07.655Z,4.50
2018-05-09T09:22:35.956Z,4.03
2018-05-09T09:25:08.819Z,4.40
2018-05-09T09:27:37.539Z,4.77
2018-05-09T09:30:07.370Z,4.20
2018-05-09T09:32:35.693Z,4.10
2018-05-09T09:35:07.615Z,4.10
2018-05-09T09:37:35.903Z,4.07
2018-05-09T09:40:07.755Z,5.10
2018-05-09T09:42:36.042Z,4.40
2018-05-09T09:45:07.771Z,4.07
2018-05-09T09:47:36.079Z,4.33
2018-05-09T09:50:08.051Z,4.50
2018-05-09T09:52:36.611Z,4.30
2018-05-09T09:55:06.595Z,4.23
2018-05-09T09:57:34.887Z,4.40
2018-05-09T10:00:10.007Z,4.47
2018-05-09T10:02:38.428Z,4.40
2018-05-09T10:05:06.835Z,4.33
2018-05-09T10:07:35.140Z,4.40
2018-05-09T10:10:06.366Z,4.60
2018-05-09T10:12:34.700Z,4.63
2018-05-09T10:15:07.904Z,4.23
2018-05-09T10:17:40.353Z,4.30
2018-05-09T10:20:08.627Z,4.30
2018-05-09T10:22:37.387Z,4.43
2018-05-09T10:25:07.305Z,5.33
2018-05-09T10:27:35.580Z,4.30
2018-05-09T10:30:06.470Z,4.37
2018-05-09T10:32:34.791Z,4.70
2018-05-09T10:35:06.839Z,4.67
2018-05-09T10:37:35.173Z,4.22
2018-05-09T10:40:06.420Z,4.20
2018-05-09T10:42:34.939Z,4.15
2018-05-09T10:45:06.357Z,3.83
2018-05-09T10:47:34.640Z,4.15
2018-05-09T10:50:06.127Z,3.80
2018-05-09T10:52:34.392Z,4.03
2018-05-09T10:55:09.403Z,4.07
2018-05-09T10:57:37.701Z,3.80
2018-05-09T11:00:06.879Z,7.23
2018-05-09T11:02:35.344Z,4.33
2018-05-09T11:05:07.664Z,4.87
2018-05-09T11:07:35.882Z,4.37
2018-05-09T11:10:07.175Z,4.03
2018-05-09T11:12:35.720Z,3.73
2018-05-09T11:15:07.829Z,3.87
2018-05-09T11:17:36.153Z,4.43
2018-05-09T11:20:07.294Z,3.90
2018-05-09T11:22:35.548Z,4.27
2018-05-09T11:25:07.544Z,4.10
2018-05-09T11:27:35.810Z,4.30
2018-05-09T11:30:07.909Z,4.90
2018-05-09T11:32:36.164Z,3.90
2018-05-09T11:35:08.199Z,5.53
2018-05-09T11:37:36.461Z,4.10
2018-05-09T11:40:06.731Z,4.20
2018-05-09T11:42:35.224Z,4.10
2018-05-09T11:45:06.742Z,4.30
2018-05-09T11:47:35.003Z,4.10
2018-05-09T11:50:06.451Z,4.13
2018-05-09T11:52:34.896Z,3.87
2018-05-09T11:55:10.201Z,3.93
2018-05-09T11:57:38.450Z,4.33
2018-05-09T12:00:07.002Z,4.17
2018-05-09T12:02:35.564Z,3.93
2018-05-09T12:05:06.307Z,4.40
2018-05-09T12:07:34.579Z,4.37
2018-05-09T12:10:07.339Z,4.37
2018-05-09T12:12:35.618Z,4.20
2018-05-09T12:15:05.799Z,4.43
2018-05-09T12:17:34.491Z,4.33
2018-05-09T12:20:07.428Z,4.87
2018-05-09T12:22:35.711Z,3.50
2018-05-09T12:25:05.494Z,4.10
2018-05-09T12:27:33.765Z,4.67
2018-05-09T12:30:07.759Z,4.30
2018-05-09T12:32:37.038Z,4.67
2018-05-09T12:35:05.831Z,4.47
2018-05-09T12:37:34.106Z,4.40
2018-05-09T12:40:08.137Z,5.30
2018-05-09T12:42:36.598Z,5.30
2018-05-09T12:45:06.536Z,4.43
2018-05-09T12:47:34.794Z,3.90
2018-05-09T12:50:06.844Z,5.30
2018-05-09T12:52:35.248Z,4.40
2018-05-09T12:55:08.040Z,6.27
2018-05-09T12:57:36.455Z,4.50
2018-05-09T13:00:06.352Z,4.93
2018-05-09T13:02:34.639Z,4.50
2018-05-09T13:05:05.855Z,4.63
2018-05-09T13:07:34.388Z,4.30
2018-05-09T13:10:07.007Z,4.60
2018-05-09T13:12:35.286Z,5.00
2018-05-09T13:15:06.604Z,4.67
2018-05-09T13:17:34.871Z,4.40
2018-05-09T13:20:06.871Z,4.43
2018-05-09T13:22:35.201Z,4.20
2018-05-09T13:25:06.696Z,4.33
2018-05-09T13:27:35.172Z,4.30
2018-05-09T13:30:08.135Z,5.00
2018-05-09T13:32:36.649Z,4.73
2018-05-09T13:35:05.870Z,4.60
2018-05-09T13:37:34.142Z,4.60
2018-05-09T13:40:06.286Z,4.37
2018-05-09T13:42:34.555Z,4.73
2018-05-09T13:45:07.511Z,5.30
2018-05-09T13:47:36.087Z,4.83
2018-05-09T13:50:06.867Z,4.87
2018-05-09T13:52:35.212Z,4.70
2018-05-09T13:55:07.319Z,4.27
2018-05-09T13:57:35.750Z,4.03
2018-05-09T14:00:05.736Z,4.83
2018-05-09T14:02:34.017Z,5.40
2018-05-09T14:05:09.139Z,4.37
2018-05-09T14:07:37.732Z,4.80
2018-05-09T14:10:05.987Z,4.80
2018-05-09T14:12:34.295Z,5.10
2018-05-09T14:15:05.924Z,4.53
2018-05-09T14:17:34.184Z,4.77
2018-05-09T14:20:06.304Z,4.20
2018-05-09T14:22:34.563Z,5.10
2018-05-09T14:25:05.874Z,4.70
2018-05-09T14:27:34.147Z,4.60
2018-05-09T14:30:09.031Z,4.10
2018-05-09T14:32:37.392Z,4.80
2018-05-09T14:35:06.290Z,4.57
2018-05-09T14:37:35.047Z,4.73
2018-05-09T14:40:07.063Z,4.73
2018-05-09T14:42:35.312Z,4.10
2018-05-09T14:45:06.823Z,5.00
2018-05-09T14:47:35.101Z,4.37
2018-05-09T14:50:06.963Z,5.10
2018-05-09T14:52:35.372Z,4.57
2018-05-09T14:55:07.064Z,4.27
2018-05-09T14:57:35.332Z,5.10
2018-05-09T15:00:07.335Z,4.70
2018-05-09T15:02:35.603Z,4.20
2018-05-09T15:05:06.952Z,4.27
2018-05-09T15:07:35.739Z,4.30
2018-05-09T15:10:05.668Z,4.03
2018-05-09T15:12:33.942Z,4.23
2018-05-09T15:15:07.856Z,4.00
2018-05-09T15:17:36.127Z,4.50
2018-05-09T15:20:06.255Z,4.40
2018-05-09T15:22:35.459Z,3.87
2018-05-09T15:25:07.282Z,4.47
2018-05-09T15:27:35.539Z,4.60
2018-05-09T15:30:06.007Z,4.10
2018-05-09T15:32:34.479Z,3.97
2018-05-09T15:35:05.826Z,4.10
2018-05-09T15:37:34.112Z,4.00
2018-05-09T15:40:05.650Z,4.53
2018-05-09T15:42:33.899Z,4.23
2018-05-09T15:45:06.827Z,3.97
2018-05-09T15:47:35.100Z,4.20
2018-05-09T15:50:06.546Z,4.20
2018-05-09T15:52:34.828Z,4.13
2018-05-09T15:55:06.235Z,4.10
2018-05-09T15:57:34.498Z,4.33
2018-05-09T16:00:08.444Z,4.63
2018-05-09T16:02:36.716Z,4.60
2018-05-09T16:05:08.063Z,4.30
2018-05-09T16:07:36.322Z,4.40
2018-05-09T16:10:06.426Z,4.17
2018-05-09T16:12:34.885Z,4.30
2018-05-09T16:15:07.020Z,4.10
2018-05-09T16:17:35.281Z,4.10
2018-05-09T16:20:06.698Z,4.10
2018-05-09T16:22:34.959Z,4.10
2018-05-09T16:25:06.156Z,3.60
2018-05-09T16:27:34.431Z,4.40
2018-05-09T16:30:07.467Z,4.30
2018-05-09T16:32:35.738Z,3.97
2018-05-09T16:35:05.913Z,3.80
2018-05-09T16:37:34.178Z,3.70
2018-05-09T16:40:08.215Z,3.40
2018-05-09T16:42:36.475Z,3.50
2018-05-09T16:45:06.396Z,3.80
2018-05-09T16:47:34.659Z,3.90
2018-05-09T16:50:08.592Z,3.60
2018-05-09T16:52:37.632Z,3.23
2018-05-09T16:55:06.057Z,3.97
2018-05-09T16:57:34.341Z,3.70
2018-05-09T17:00:05.766Z,3.50
2018-05-09T17:02:34.066Z,3.60
2018-05-09T17:05:05.399Z,3.50
2018-05-09T17:07:33.682Z,3.70
2018-05-09T17:10:08.431Z,3.80
2018-05-09T17:12:36.722Z,4.03
2018-05-09T17:15:06.136Z,3.60
2018-05-09T17:17:34.458Z,3.97
2018-05-09T17:20:06.134Z,4.07
2018-05-09T17:22:34.431Z,3.50
2018-05-09T17:25:06.288Z,3.90
2018-05-09T17:27:34.822Z,4.03
2018-05-09T17:30:06.872Z,3.87
2018-05-09T17:32:35.157Z,4.00
2018-05-09T17:35:05.953Z,3.97
2018-05-09T17:37:34.239Z,4.20
2018-05-09T17:40:05.771Z,3.70
2018-05-09T17:42:34.229Z,4.03
2018-05-09T17:45:05.420Z,3.70
2018-05-09T17:47:33.701Z,3.87
2018-05-09T17:50:08.454Z,4.20
2018-05-09T17:52:36.715Z,3.97
2018-05-09T17:55:06.430Z,4.00
2018-05-09T17:57:34.707Z,4.20
2018-05-09T18:00:05.991Z,4.20
2018-05-09T18:02:34.277Z,5.67
2018-05-09T18:05:05.671Z,4.90
2018-05-09T18:07:33.949Z,5.70
2018-05-09T18:10:05.850Z,7.53
2018-05-09T18:12:34.141Z,5.50
2018-05-09T18:15:05.429Z,6.00
2018-05-09T18:17:33.712Z,7.40
2018-05-09T18:20:08.343Z,6.33
2018-05-09T18:22:36.631Z,5.03
2018-05-09T18:25:06.728Z,4.50
2018-05-09T18:27:35.019Z,4.40
2018-05-09T18:30:07.139Z,4.50
2018-05-09T18:32:35.579Z,4.57
2018-05-09T18:35:07.567Z,4.70
2018-05-09T18:37:35.914Z,5.60
2018-05-09T18:40:07.225Z,20.23
2018-05-09T18:42:35.468Z,23.37
2018-05-09T18:45:06.657Z,21.20
2018-05-09T18:47:35.006Z,24.07
2018-05-09T18:50:07.580Z,12.77
2018-05-09T18:52:35.877Z,7.50
2018-05-09T18:55:07.420Z,5.67
2018-05-09T18:57:35.844Z,8.13
2018-05-09T19:00:07.167Z,6.73
2018-05-09T19:02:35.465Z,5.43
2018-05-09T19:05:06.771Z,5.73
2018-05-09T19:07:35.051Z,4.90
2018-05-09T19:10:06.353Z,5.10
2018-05-09T19:12:34.730Z,7.87
2018-05-09T19:15:06.849Z,5.97
2018-05-09T19:17:35.312Z,5.37
2018-05-09T19:20:06.069Z,4.37
2018-05-09T19:22:34.387Z,4.30
2018-05-09T19:25:05.928Z,3.80
2018-05-09T19:27:34.253Z,4.07
2018-05-09T19:30:05.561Z,4.90
2018-05-09T19:32:33.831Z,7.47
2018-05-09T19:35:08.626Z,7.17
2018-05-09T19:37:37.030Z,5.10
2018-05-09T19:40:06.219Z,4.80
2018-05-09T19:42:34.483Z,4.90
2018-05-09T19:45:06.059Z,4.40
2018-05-09T19:47:34.335Z,5.60
2018-05-09T19:50:05.932Z,5.27
2018-05-09T19:52:34.184Z,5.40
2018-05-09T19:55:06.116Z,5.90
2018-05-09T19:57:34.328Z,5.23
2018-05-09T20:00:05.831Z,5.10
2018-05-09T20:02:34.161Z,5.53
2018-05-09T20:05:05.993Z,5.50
2018-05-09T20:07:34.251Z,5.00
2018-05-09T20:10:05.539Z,5.23
2018-05-09T20:12:33.789Z,5.37
2018-05-09T20:15:08.600Z,5.07
2018-05-09T20:17:36.848Z,10.47
2018-05-09T20:20:06.472Z,11.93
2018-05-09T20:22:34.729Z,6.50
2018-05-09T20:25:06.351Z,5.50
2018-05-09T20:27:35.288Z,5.53
2018-05-09T20:30:12.900Z,24.33
2018-05-09T20:32:41.153Z,15.83
2018-05-09T20:35:09.771Z,16.80
2018-05-09T20:37:38.048Z,42.97
2018-05-09T20:40:06.333Z,27.63
2018-05-09T20:42:34.619Z,6.10
2018-05-09T20:45:06.041Z,38.03
2018-05-09T20:47:34.443Z,38.43
2018-05-09T20:50:06.481Z,19.40
2018-05-09T20:52:34.780Z,32.30
2018-05-09T20:55:27.668Z,12.77
2018-05-09T20:57:56.743Z,18.80
2018-05-09T21:00:25.160Z,9.90
2018-05-09T21:02:53.483Z,24.90
2018-05-09T21:05:22.051Z,29.80
2018-05-09T21:07:57.032Z,21.50
2018-05-09T21:10:25.330Z,9.00
2018-05-09T21:12:53.608Z,15.97
2018-05-09T21:15:21.903Z,17.10
2018-05-09T21:17:50.173Z,23.67
2018-05-09T21:20:18.470Z,54.43
2018-05-09T21:22:46.766Z,50.67
2018-05-09T21:25:15.067Z,19.23
2018-05-09T21:27:43.389Z,19.97
2018-05-09T21:30:11.633Z,16.93
2018-05-09T21:32:39.910Z,12.30
2018-05-09T21:35:09.182Z,12.40
2018-05-09T21:37:37.448Z,9.70
2018-05-09T21:40:06.629Z,11.70
2018-05-09T21:42:34.863Z,11.13
2018-05-09T21:45:08.900Z,5.67
2018-05-09T21:47:37.161Z,49.87
2018-05-09T21:50:06.584Z,5.97
2018-05-09T21:52:34.875Z,16.17
2018-05-09T21:55:08.891Z,5.90
2018-05-09T21:57:37.163Z,16.47
2018-05-09T22:00:06.790Z,15.93
2018-05-09T22:02:35.055Z,15.53
2018-05-09T22:05:07.039Z,8.90
2018-05-09T22:07:35.340Z,11.63
2018-05-09T22:10:07.002Z,5.43
2018-05-09T22:12:35.297Z,19.10
2018-05-09T22:15:06.655Z,20.27
2018-05-09T22:17:34.936Z,6.97
2018-05-09T22:20:07.059Z,7.60
2018-05-09T22:22:35.339Z,13.67
2018-05-09T22:25:06.312Z,15.43
2018-05-09T22:27:34.592Z,7.83
2018-05-09T22:30:08.503Z,6.23
2018-05-09T22:32:36.769Z,5.83
2018-05-09T22:35:09.007Z,5.90
2018-05-09T22:37:37.285Z,6.00
2018-05-09T22:40:07.139Z,5.33
2018-05-09T22:42:35.708Z,5.73
2018-05-09T22:45:07.659Z,6.27
2018-05-09T22:47:35.944Z,7.83
2018-05-09T22:50:07.262Z,7.10
2018-05-09T22:52:35.569Z,7.90
2018-05-09T22:55:07.962Z,8.20
2018-05-09T22:57:36.239Z,9.77
2018-05-09T23:00:07.726Z,9.60
2018-05-09T23:02:36.155Z,12.40
2018-05-09T23:05:07.470Z,13.20
2018-05-09T23:07:35.787Z,12.47
2018-05-09T23:10:06.989Z,13.97
2018-05-09T23:12:35.400Z,15.33
2018-05-09T23:15:07.290Z,15.40
2018-05-09T23:17:35.938Z,16.20
2018-05-09T23:20:07.303Z,18.10
2018-05-09T23:22:35.601Z,20.40
2018-05-09T23:25:07.516Z,20.47
2018-05-09T23:27:36.611Z,22.03
2018-05-09T23:30:07.910Z,22.03
2018-05-09T23:32:36.213Z,23.67
2018-05-09T23:35:08.978Z,23.67
2018-05-09T23:37:37.271Z,21.37
2018-05-09T23:40:07.366Z,23.17
2018-05-09T23:42:35.660Z,22.00
2018-05-09T23:45:06.948Z,22.63
2018-05-09T23:47:35.231Z,23.37
2018-05-09T23:50:06.487Z,23.50
2018-05-09T23:52:34.820Z,23.03
2018-05-09T23:55:09.878Z,22.00
2018-05-09T23:57:38.167Z,23.07
